• Join FlightAware (Why Join?)
  • Login
  • US Flag 
 
08:38PM EST


 

Airport Tracker/Info


-or-


 

Live Flight TrackerFlight Track Log ✈ TSU215 ✈ 23-Jun-2013 ✈ KELP - MMCN / CEN

Flight Track Log - Related Links

Times and Time Zones

All times are in EDT time to prevent confusion due to time zone crossing. See the TSU215 flight status page for this flight to view local times or setup timezone preferences in your user account.

Time Position Orientation Groundspeed Altitude Reporting Facility
EDT Latitude Longitude Course Direction KTS MPH feet Rate Location/Type
03:04AM 31.8006 -106.3933 220° Southwest 163 188 4,600  Level Albuquerque Center
03:05AM 31.7806 -106.4131 220° Southwest 172 198 6,200 2,100 Climbing Albuquerque Center
03:06AM 31.7358 -106.4367 204° Southwest 199 229 8,000 1,560 Climbing Albuquerque Center
03:07AM 31.7436 -106.5003 278° West 228 262 9,600 1,800 Climbing Albuquerque Center
03:08AM 31.7894 -106.5908 301° West 296 341 11,900 2,160 Climbing Albuquerque Center
03:09AM 31.8100 -106.7056 282° West 358 412 14,000 2,400 Climbing Albuquerque Center
03:10AM 31.8381 -106.8322 285° West 399 459 16,800 3,120 Climbing Albuquerque Center
03:11AM 31.8611 -106.9633 282° West 408 470 20,400 3,120 Climbing Albuquerque Center
03:12AM 31.8825 -107.0950 281° West 408 470 23,200 2,700 Climbing Albuquerque Center
03:13AM 31.9100 -107.2294 284° West 418 481 25,800 2,460 Climbing Albuquerque Center
03:14AM 31.8439 -107.3422 235° Southwest 421 484 28,200 2,340 Climbing Albuquerque Center
03:16AM 31.6814 -107.4377 207° Southwest  Level Estimated
03:23AM 31.0182 -107.8235 207° Southwest  Level Estimated
03:24AM 30.9233 -107.8782 206° Southwest  Level Estimated
03:25AM 30.8284 -107.9327 206° Southwest  Level Estimated
03:26AM 30.7335 -107.9872 206° Southwest  Level Estimated
03:27AM 30.6386 -108.0415 206° Southwest  Level Estimated
03:28AM 30.5437 -108.0958 206° Southwest  Level Estimated
03:29AM 30.4487 -108.1499 206° Southwest  Level Estimated
03:30AM 30.3538 -108.2039 206° Southwest  Level Estimated
03:31AM 30.2588 -108.2579 206° Southwest  Level Estimated
03:32AM 30.1637 -108.3117 206° Southwest  Level Estimated
03:33AM 30.0687 -108.3654 206° Southwest  Level Estimated
03:34AM 29.9736 -108.4190 206° Southwest  Level Estimated
03:35AM 29.8785 -108.4726 206° Southwest  Level Estimated
03:36AM 29.7834 -108.5260 206° Southwest  Level Estimated
03:37AM 29.6883 -108.5793 206° Southwest  Level Estimated
03:38AM 29.5931 -108.6325 206° Southwest  Level Estimated
03:39AM 29.4979 -108.6856 206° Southwest  Level Estimated
03:40AM 29.4027 -108.7386 206° Southwest  Level Estimated
03:41AM 29.3075 -108.7915 206° Southwest  Level Estimated
03:42AM 29.2123 -108.8443 206° Southwest  Level Estimated
03:43AM 29.1170 -108.8970 206° Southwest  Level Estimated
03:44AM 29.0217 -108.9497 206° Southwest  Level Estimated
03:45AM 28.9264 -109.0022 206° Southwest  Level Estimated
03:46AM 28.8311 -109.0546 206° Southwest  Level Estimated
03:47AM 28.7358 -109.1069 206° Southwest  Level Estimated
03:48AM 28.6404 -109.1592 206° Southwest  Level Estimated
03:49AM 28.5450 -109.2113 206° Southwest  Level Estimated
03:50AM 28.4496 -109.2634 206° Southwest  Level Estimated
03:51AM 28.3542 -109.3153 206° Southwest  Level Estimated
03:52AM 28.2588 -109.3672 206° Southwest  Level Estimated
03:53AM 28.1633 -109.4189 206° Southwest  Level Estimated
03:54AM 28.0678 -109.4706 206° Southwest  Level Estimated
03:55AM 27.9723 -109.5222 206° Southwest  Level Estimated
03:56AM 27.8768 -109.5737 205° Southwest  Level Estimated
03:57AM 27.7813 -109.6251 205° Southwest  Level Estimated
03:58AM 27.6857 -109.6764 205° Southwest  Level Estimated
03:59AM 27.5901 -109.7276 205° Southwest  Level Estimated
04:00AM 27.4946 -109.7787 205° Southwest  Level Estimated
04:01AM 27.3989 -109.8298 205° Southwest  Level Estimated
04:02AM 27.3926 -109.8331 205° Southwest  Level Estimated
04:03AM 27.3926 -109.8331 222° Southwest  Level Estimated
04:04AM 27.3926 -109.8331 222° Southwest  Level Estimated
04:05AM 27.3926 -109.8331 222° Southwest  Level Estimated
04:06AM 27.3926 -109.8331 222° Southwest  Level Estimated
04:07AM 27.3926 -109.8331 222° Southwest  Level Estimated
04:08AM 27.3926 -109.8331 222° Southwest  Level Estimated
04:09AM 27.3926 -109.8331 222° Southwest  Level Estimated
04:10AM 27.3926 -109.8331 222° Southwest  Level Estimated
04:11AM 27.3926 -109.8331 222° Southwest  Level Estimated
04:12AM 27.3926 -109.8331 222° Southwest  Level Estimated
04:13AM 27.3926 -109.8331 222° Southwest  Level Estimated
04:14AM 27.3926 -109.8331 222° Southwest  Level Estimated
04:15AM 27.3926 -109.8331 222° Southwest  Level Estimated
04:16AM 27.3926 -109.8331 222° Southwest  Level Estimated
04:17AM 27.3926 -109.8331 222° Southwest  Level Estimated
04:18AM 27.3926 -109.8331 222° Southwest  Level Estimated
04:19AM 27.3926 -109.8331 222° Southwest  Level Estimated
04:20AM 27.3926 -109.8331 222° Southwest  Level Estimated
04:21AM 27.3926 -109.8331 222° Southwest  Level Estimated
04:22AM 27.3926 -109.8331 222° Southwest  Level Estimated
04:23AM 27.3926 -109.8331 222° Southwest  Level Estimated
04:24AM 27.3926 -109.8331 222° Southwest  Level Estimated
04:25AM 27.3926 -109.8331 222° Southwest  Level Estimated
04:26AM 27.3926 -109.8331 222° Southwest  Level Estimated